Time;durP1;ratioP1;P1;durP2;ratioP2;P2;SDS_P1;SDS_P2;PMS_P1;PMS_P2;Temp;Humidity;BMP_temperature;BMP_pressure;BME280_temperature;BME280_humidity;BME280_pressure;Samples;Min_cycle;Max_cycle;Signal;HPM_P1;HPM_P2
2023/05/22 00:00:35;;;;;;;12.20;8.93;;;13.70;99.90;;;;;;2064660;28;20232;-66
2023/05/22 00:01:36;;;;;;;12.48;8.90;;;13.70;99.90;;;;;;2058171;28;20292;-65
2023/05/22 00:02:37;;;;;;;12.03;8.33;;;13.70;99.90;;;;;;2053950;28;20239;-65
2023/05/22 00:03:39;;;;;;;13.20;8.85;;;13.70;99.90;;;;;;2047538;28;20227;-66
2023/05/22 00:04:41;;;;;;;14.48;9.25;;;13.60;99.90;;;;;;2058134;28;20255;-65
2023/05/22 00:05:41;;;;;;;13.45;8.52;;;13.60;99.90;;;;;;2064320;28;20222;-65
2023/05/22 00:06:42;;;;;;;11.90;8.77;;;13.70;99.90;;;;;;2062263;28;20229;-66
2023/05/22 00:07:44;;;;;;;11.73;8.80;;;13.60;99.90;;;;;;2063370;28;20222;-66
2023/05/22 00:08:45;;;;;;;12.15;8.68;;;13.50;99.90;;;;;;2060386;28;20245;-65
2023/05/22 00:09:46;;;;;;;10.93;8.43;;;13.50;99.90;;;;;;2062195;28;20277;-65
2023/05/22 00:10:47;;;;;;;10.40;8.40;;;13.60;99.90;;;;;;2062460;28;20225;-65
2023/05/22 00:11:48;;;;;;;13.10;8.60;;;13.50;99.90;;;;;;2055394;28;20286;-66
2023/05/22 00:12:48;;;;;;;12.80;9.10;;;13.60;99.90;;;;;;2055343;28;20231;-65
2023/05/22 00:13:49;;;;;;;11.00;8.27;;;13.60;99.90;;;;;;2046436;28;20235;-65
2023/05/22 00:14:51;;;;;;;12.27;9.00;;;13.60;99.90;;;;;;2048208;28;20231;-65
2023/05/22 00:15:52;;;;;;;11.52;8.77;;;13.60;99.90;;;;;;2059099;28;20417;-65
2023/05/22 00:16:55;;;;;;;13.07;9.10;;;13.70;99.90;;;;;;2057039;28;20214;-65
2023/05/22 00:17:56;;;;;;;10.68;8.30;;;13.70;99.90;;;;;;2064310;28;20226;-65
2023/05/22 00:18:58;;;;;;;14.05;9.05;;;13.70;99.90;;;;;;2070551;28;20213;-66
2023/05/22 00:20:17;;;;;;;11.45;8.60;;;13.70;99.90;;;;;;2058302;28;20486;-65
2023/05/22 00:21:18;;;;;;;10.77;8.07;;;13.60;99.90;;;;;;2057051;28;20217;-66
2023/05/22 00:22:19;;;;;;;13.23;9.65;;;13.60;99.90;;;;;;2061056;28;20637;-66
2023/05/22 00:23:21;;;;;;;14.82;9.40;;;13.60;99.90;;;;;;2063506;28;20198;-66
2023/05/22 00:24:22;;;;;;;11.63;8.63;;;13.50;99.90;;;;;;2061313;28;20234;-66
2023/05/22 00:25:22;;;;;;;12.93;9.33;;;13.50;99.90;;;;;;2060101;28;20318;-66
2023/05/22 00:26:23;;;;;;;12.53;9.20;;;13.50;99.90;;;;;;2061048;28;20268;-66
2023/05/22 00:27:24;;;;;;;14.60;8.83;;;13.50;99.90;;;;;;2063931;28;20329;-65
2023/05/22 00:28:25;;;;;;;11.33;9.00;;;13.50;99.90;;;;;;2058760;28;20709;-66
2023/05/22 00:29:26;;;;;;;12.77;8.70;;;13.50;99.90;;;;;;2054694;28;20238;-66
2023/05/22 00:30:26;;;;;;;13.93;9.57;;;13.50;99.90;;;;;;2064168;28;20714;-66
2023/05/22 00:31:27;;;;;;;14.97;9.33;;;13.40;99.90;;;;;;2057098;28;20227;-66
2023/05/22 00:32:28;;;;;;;11.17;8.57;;;13.40;99.90;;;;;;2067216;28;20680;-66
2023/05/22 00:33:29;;;;;;;12.30;9.15;;;13.40;99.90;;;;;;2069744;28;20233;-66
2023/05/22 00:34:30;;;;;;;13.03;9.30;;;13.40;99.90;;;;;;2063222;28;20268;-65
2023/05/22 00:35:30;;;;;;;13.63;8.83;;;13.40;99.90;;;;;;2041488;29;21021;-66
2023/05/22 00:36:31;;;;;;;14.60;9.00;;;13.40;99.90;;;;;;2049721;28;20329;-66
2023/05/22 00:37:32;;;;;;;12.63;8.70;;;13.40;99.90;;;;;;2053959;28;20219;-66
2023/05/22 00:38:36;;;;;;;11.23;8.00;;;13.50;99.90;;;;;;2055313;28;20222;-66
2023/05/22 00:39:37;;;;;;;15.10;8.90;;;13.50;99.90;;;;;;2061997;28;20230;-66
2023/05/22 00:40:39;;;;;;;12.77;8.80;;;13.50;99.90;;;;;;2055710;28;20783;-66
2023/05/22 00:41:40;;;;;;;12.75;8.50;;;13.40;99.90;;;;;;2061105;28;20233;-66
2023/05/22 00:42:44;;;;;;;12.40;8.67;;;13.30;99.90;;;;;;2068264;28;20246;-66
2023/05/22 00:43:45;;;;;;;14.15;9.15;;;13.30;99.90;;;;;;2064761;28;20225;-66
2023/05/22 00:44:47;;;;;;;12.70;8.87;;;13.20;99.90;;;;;;2070942;28;20237;-66
2023/05/22 00:45:47;;;;;;;13.23;9.05;;;13.30;99.90;;;;;;2053444;28;20219;-66
2023/05/22 00:46:49;;;;;;;11.63;9.03;;;13.30;99.90;;;;;;2060186;28;20228;-66
2023/05/22 00:47:51;;;;;;;13.13;8.98;;;13.30;99.90;;;;;;2050376;28;20669;-66
2023/05/22 00:48:52;;;;;;;14.95;9.55;;;13.30;99.90;;;;;;2052762;28;20237;-66
2023/05/22 00:49:54;;;;;;;12.02;8.68;;;13.30;99.90;;;;;;2053444;28;20731;-66
2023/05/22 00:50:56;;;;;;;16.50;10.50;;;13.30;99.90;;;;;;2057357;28;20223;-66
2023/05/22 00:51:57;;;;;;;14.20;9.73;;;13.30;99.90;;;;;;2057640;28;20219;-66
2023/05/22 00:52:58;;;;;;;13.47;9.00;;;13.40;99.90;;;;;;2069077;28;20685;-66
2023/05/22 00:53:59;;;;;;;14.10;9.73;;;13.40;99.90;;;;;;2061581;28;20226;-66
2023/05/22 00:55:02;;;;;;;14.10;9.88;;;13.30;99.90;;;;;;2047068;28;20988;-68
2023/05/22 00:56:05;;;;;;;13.98;8.80;;;13.30;99.90;;;;;;2062316;28;20715;-66
2023/05/22 00:57:06;;;;;;;14.30;10.35;;;13.30;99.90;;;;;;2060715;28;20689;-66
2023/05/22 00:58:10;;;;;;;16.13;11.23;;;13.30;99.90;;;;;;2060228;28;20182;-67
2023/05/22 00:59:11;;;;;;;13.25;10.13;;;13.20;99.90;;;;;;2052943;28;20444;-66
2023/05/22 01:00:14;;;;;;;14.48;9.75;;;13.20;99.90;;;;;;2061005;28;20174;-66
2023/05/22 01:01:16;;;;;;;13.48;9.52;;;13.30;99.90;;;;;;2053411;28;20262;-66
2023/05/22 01:02:17;;;;;;;16.40;10.45;;;13.30;99.90;;;;;;2053990;28;20187;-66
2023/05/22 01:03:24;;;;;;;11.77;9.20;;;13.30;99.90;;;;;;2059705;28;20224;-66
2023/05/22 01:04:25;;;;;;;14.73;9.70;;;13.30;99.90;;;;;;2057101;28;20234;-66
2023/05/22 01:05:26;;;;;;;13.90;9.57;;;13.30;99.90;;;;;;2058386;28;20230;-66
2023/05/22 01:06:26;;;;;;;12.87;9.40;;;13.30;99.90;;;;;;2062717;28;20284;-66
2023/05/22 01:07:27;;;;;;;12.77;9.37;;;13.30;99.90;;;;;;2059885;28;20727;-66
2023/05/22 01:08:28;;;;;;;12.23;8.73;;;13.40;99.90;;;;;;2060134;28;20597;-66
2023/05/22 01:09:30;;;;;;;13.73;9.17;;;13.40;99.90;;;;;;2058494;28;20645;-66
2023/05/22 01:10:33;;;;;;;13.20;9.52;;;13.40;99.90;;;;;;2063382;28;20253;-66
2023/05/22 01:12:00;;;;;;;12.35;9.15;;;13.30;99.90;;;;;;2055881;28;20219;-66
2023/05/22 01:13:10;;;;;;;14.85;10.38;;;13.20;99.90;;;;;;2053820;28;20301;-68
2023/05/22 01:15:16;;;;;;;12.90;8.88;;;13.10;99.90;;;;;;2052677;28;20231;-66
2023/05/22 01:16:33;;;;;;;9.20;7.63;;;13.00;99.90;;;;;;2077304;28;20672;-66
2023/05/22 01:17:51;;;;;;;11.97;8.53;;;13.10;99.90;;;;;;2071122;28;20225;-66
2023/05/22 01:19:46;;;;;;;11.85;8.63;;;13.20;99.90;;;;;;2063563;28;20472;-66
2023/05/22 01:21:09;;;;;;;11.30;7.28;;;13.30;99.90;;;;;;2069401;28;20253;-66
2023/05/22 01:23:04;;;;;;;10.38;7.95;;;13.40;99.90;;;;;;2050423;28;20217;-66
2023/05/22 01:24:24;;;;;;;9.30;7.25;;;13.50;99.90;;;;;;2048883;28;20554;-66
2023/05/22 01:26:07;;;;;;;10.65;7.22;;;13.70;99.90;;;;;;2059599;28;20226;-66
2023/05/22 01:27:46;;;;;;;11.60;7.65;;;13.80;99.90;;;;;;2062227;28;20213;-66
2023/05/22 01:29:27;;;;;;;10.77;7.28;;;13.90;99.90;;;;;;2062489;28;20226;-66
2023/05/22 01:30:52;;;;;;;12.75;7.32;;;13.90;99.90;;;;;;2054387;28;20237;-66
2023/05/22 01:31:56;;;;;;;14.30;8.43;;;13.90;99.90;;;;;;2052457;28;20254;-66
2023/05/22 01:32:58;;;;;;;12.77;8.40;;;13.80;99.90;;;;;;2053593;28;20919;-66
2023/05/22 01:34:01;;;;;;;11.07;8.15;;;13.90;99.90;;;;;;2054739;28;20222;-66
2023/05/22 01:35:09;;;;;;;11.40;8.30;;;13.80;99.90;;;;;;2054574;28;20234;-66
2023/05/22 01:36:12;;;;;;;12.85;8.40;;;13.70;99.90;;;;;;2038726;28;20228;-66
2023/05/22 01:37:15;;;;;;;13.02;9.50;;;13.70;99.90;;;;;;2046355;28;20238;-66
2023/05/22 01:38:16;;;;;;;13.95;9.40;;;13.70;99.90;;;;;;2055161;28;20186;-66
2023/05/22 01:39:17;;;;;;;13.27;8.70;;;13.80;99.90;;;;;;2049448;28;20263;-66
2023/05/22 01:40:19;;;;;;;13.63;9.45;;;13.80;99.90;;;;;;2047808;28;20262;-66
2023/05/22 01:41:21;;;;;;;11.43;8.55;;;13.90;99.90;;;;;;2057684;28;20198;-66
2023/05/22 01:42:22;;;;;;;11.95;8.10;;;13.90;99.90;;;;;;2055279;28;20242;-66
2023/05/22 01:43:24;;;;;;;10.95;7.57;;;13.90;99.90;;;;;;2051164;28;20681;-66
2023/05/22 01:44:25;;;;;;;11.45;8.35;;;13.80;99.90;;;;;;2054216;28;20242;-66
2023/05/22 01:45:26;;;;;;;12.57;8.50;;;13.90;99.90;;;;;;2063080;28;20313;-66
2023/05/22 01:46:28;;;;;;;11.43;8.17;;;13.90;99.90;;;;;;2069198;28;20235;-66
2023/05/22 01:47:29;;;;;;;9.27;7.47;;;13.90;99.90;;;;;;2050951;28;20238;-66
2023/05/22 01:48:29;;;;;;;10.47;7.40;;;14.00;99.90;;;;;;2059803;28;20245;-66
2023/05/22 01:49:35;;;;;;;11.43;7.53;;;14.00;99.90;;;;;;2066734;28;20248;-66
2023/05/22 01:50:35;;;;;;;10.57;7.60;;;13.90;99.90;;;;;;2061819;28;20246;-66
2023/05/22 01:51:59;;;;;;;12.37;7.60;;;13.90;99.90;;;;;;2064457;28;20234;-66
2023/05/22 01:53:15;;;;;;;10.57;7.63;;;14.00;99.90;;;;;;2056223;28;20285;-67
2023/05/22 01:54:24;;;;;;;10.75;7.25;;;13.90;99.90;;;;;;2045133;28;20227;-67
2023/05/22 01:55:39;;;;;;;10.38;7.75;;;13.90;99.90;;;;;;2046532;28;20216;-66
2023/05/22 01:56:55;;;;;;;11.05;7.00;;;13.90;99.90;;;;;;2063366;28;20218;-67
2023/05/22 01:58:17;;;;;;;10.35;7.70;;;13.90;99.90;;;;;;2059774;28;20222;-67
2023/05/22 01:59:36;;;;;;;10.63;7.75;;;13.90;99.90;;;;;;2060513;28;20696;-66
2023/05/22 02:00:42;;;;;;;10.27;7.97;;;13.90;99.90;;;;;;2059525;28;20222;-66
2023/05/22 02:01:43;;;;;;;12.38;8.30;;;13.90;99.90;;;;;;2070197;28;20225;-66
2023/05/22 02:02:49;;;;;;;12.35;8.85;;;13.90;99.90;;;;;;2055074;28;20219;-66
2023/05/22 02:03:55;;;;;;;11.25;7.70;;;13.90;99.90;;;;;;2043759;28;20224;-66
2023/05/22 02:04:59;;;;;;;12.73;9.30;;;13.90;99.90;;;;;;2047501;28;20221;-66
2023/05/22 02:06:08;;;;;;;13.10;9.50;;;13.90;99.90;;;;;;2054349;28;20285;-66
2023/05/22 02:07:12;;;;;;;10.75;8.23;;;13.90;99.90;;;;;;2050438;28;20220;-65
2023/05/22 02:08:14;;;;;;;11.20;8.32;;;13.90;99.90;;;;;;2051974;28;20182;-66
2023/05/22 02:09:15;;;;;;;11.07;8.35;;;13.80;99.90;;;;;;2062674;28;20619;-66
2023/05/22 02:10:19;;;;;;;12.52;8.00;;;13.70;99.90;;;;;;2043856;28;20242;-66
2023/05/22 02:11:23;;;;;;;13.07;9.30;;;13.80;99.90;;;;;;2055627;28;20191;-66
2023/05/22 02:12:24;;;;;;;12.00;8.40;;;13.70;99.90;;;;;;2059139;28;20285;-66
2023/05/22 02:13:25;;;;;;;11.93;8.02;;;13.70;99.90;;;;;;2047169;28;20234;-67
2023/05/22 02:14:29;;;;;;;11.80;8.13;;;13.70;99.90;;;;;;2053612;28;20606;-66
2023/05/22 02:15:30;;;;;;;10.93;8.77;;;13.70;99.90;;;;;;2056143;28;20321;-65
2023/05/22 02:16:31;;;;;;;10.98;8.80;;;13.70;99.90;;;;;;2059554;28;20222;-65
2023/05/22 02:17:39;;;;;;;12.93;9.17;;;13.80;99.90;;;;;;2057701;28;20384;-66
2023/05/22 02:18:40;;;;;;;12.95;8.85;;;13.80;99.90;;;;;;2060953;28;20681;-65
2023/05/22 02:19:41;;;;;;;11.07;8.15;;;13.70;99.90;;;;;;2062163;28;20782;-65
2023/05/22 02:20:42;;;;;;;11.87;8.13;;;13.60;99.90;;;;;;2062783;28;20329;-65
2023/05/22 02:21:43;;;;;;;12.40;9.07;;;13.60;99.90;;;;;;2062861;28;20630;-66
2023/05/22 02:22:46;;;;;;;15.60;9.40;;;13.60;99.90;;;;;;2062331;28;20237;-65
2023/05/22 02:23:47;;;;;;;11.60;8.25;;;13.50;99.90;;;;;;2052327;28;20225;-66
2023/05/22 02:24:48;;;;;;;11.97;9.50;;;13.50;99.90;;;;;;2051003;28;20234;-65
2023/05/22 02:25:50;;;;;;;10.73;7.70;;;13.50;99.90;;;;;;2049328;28;20227;-66
2023/05/22 02:26:52;;;;;;;12.95;8.70;;;13.60;99.90;;;;;;2056166;28;20219;-65
2023/05/22 02:27:52;;;;;;;12.57;8.43;;;13.70;99.90;;;;;;2059926;28;20332;-65
2023/05/22 02:28:53;;;;;;;8.83;7.70;;;13.80;99.90;;;;;;2061650;28;20226;-65
2023/05/22 02:29:54;;;;;;;10.93;7.97;;;13.80;99.90;;;;;;2055734;28;20234;-65
2023/05/22 02:30:55;;;;;;;10.63;8.03;;;13.90;99.90;;;;;;2048351;28;20223;-65
2023/05/22 02:31:55;;;;;;;9.50;6.97;;;14.00;99.90;;;;;;2060954;28;20325;-65
2023/05/22 02:32:57;;;;;;;12.47;7.40;;;13.90;99.90;;;;;;2058850;28;20214;-65
2023/05/22 02:33:57;;;;;;;8.73;6.75;;;13.90;99.90;;;;;;2057553;28;20693;-67
2023/05/22 02:34:58;;;;;;;8.97;7.00;;;13.90;99.90;;;;;;2059546;28;20362;-65
2023/05/22 02:35:59;;;;;;;11.20;7.23;;;14.00;99.90;;;;;;2059434;28;20354;-65
2023/05/22 02:37:03;;;;;;;10.77;7.43;;;14.00;99.90;;;;;;2058004;28;20227;-65
2023/05/22 02:38:04;;;;;;;9.80;7.28;;;14.00;99.90;;;;;;2062186;28;20225;-66
2023/05/22 02:39:05;;;;;;;10.80;7.50;;;14.10;99.90;;;;;;2063573;28;20182;-66
2023/05/22 02:40:06;;;;;;;11.23;8.00;;;14.10;99.90;;;;;;2062166;28;20190;-65
2023/05/22 02:41:07;;;;;;;9.52;7.63;;;14.10;99.90;;;;;;2046568;28;20199;-66
2023/05/22 02:42:08;;;;;;;9.33;7.10;;;14.00;99.90;;;;;;2046607;29;20219;-66
2023/05/22 02:43:09;;;;;;;9.13;7.20;;;13.90;99.90;;;;;;2053936;28;20609;-65
2023/05/22 02:44:10;;;;;;;9.63;7.10;;;13.90;99.90;;;;;;2053980;28;20214;-65
2023/05/22 02:45:10;;;;;;;10.37;7.47;;;13.90;99.90;;;;;;2061264;28;20304;-65
2023/05/22 02:46:11;;;;;;;9.40;7.30;;;13.90;99.90;;;;;;2062325;28;20187;-65
2023/05/22 02:47:12;;;;;;;8.80;7.03;;;14.00;99.90;;;;;;2062356;28;20258;-66
2023/05/22 02:48:12;;;;;;;8.83;6.53;;;13.90;99.90;;;;;;2056639;28;20198;-66
2023/05/22 02:49:13;;;;;;;8.93;6.77;;;14.00;99.90;;;;;;2060216;28;20268;-66
2023/05/22 02:50:14;;;;;;;7.97;6.43;;;14.10;99.90;;;;;;2061029;28;20186;-65
2023/05/22 02:51:15;;;;;;;9.20;6.93;;;14.10;99.90;;;;;;2058132;28;20470;-65
2023/05/22 02:52:16;;;;;;;8.20;6.37;;;14.10;99.90;;;;;;2059530;28;20190;-66
2023/05/22 02:53:16;;;;;;;8.87;6.70;;;14.10;99.90;;;;;;2058998;28;20251;-65
2023/05/22 02:54:17;;;;;;;10.83;7.53;;;14.10;99.90;;;;;;2059504;28;20206;-66
2023/05/22 02:55:18;;;;;;;10.03;7.70;;;14.00;99.90;;;;;;2060852;28;20290;-66
2023/05/22 02:56:19;;;;;;;10.30;7.57;;;14.10;99.90;;;;;;2062881;28;20190;-65
2023/05/22 02:57:20;;;;;;;12.48;7.43;;;14.10;99.90;;;;;;2062723;28;32192;-65
2023/05/22 02:58:22;;;;;;;10.80;6.67;;;14.10;99.90;;;;;;2063222;28;20292;-66
2023/05/22 02:59:23;;;;;;;11.82;6.93;;;14.10;99.90;;;;;;2059030;28;20226;-65
2023/05/22 03:00:24;;;;;;;9.13;6.70;;;14.10;99.90;;;;;;2059618;28;20265;-65
2023/05/22 03:01:29;;;;;;;9.43;6.73;;;14.10;99.90;;;;;;2058219;28;20576;-65
2023/05/22 03:02:31;;;;;;;8.02;6.28;;;14.20;99.90;;;;;;2060417;28;20237;-66
2023/05/22 03:03:32;;;;;;;9.43;7.22;;;14.10;99.90;;;;;;2063453;28;20638;-65
2023/05/22 03:04:37;;;;;;;12.57;8.45;;;14.00;99.90;;;;;;2061381;28;20248;-65
2023/05/22 03:05:39;;;;;;;8.27;6.35;;;14.10;99.90;;;;;;2061039;28;20217;-65
2023/05/22 03:06:40;;;;;;;9.60;6.95;;;14.10;99.90;;;;;;2059104;28;20222;-66
2023/05/22 03:07:41;;;;;;;8.00;6.38;;;14.10;99.90;;;;;;2059389;28;20225;-65
2023/05/22 03:08:43;;;;;;;7.20;5.93;;;14.00;99.90;;;;;;2059578;28;20218;-65
2023/05/22 03:09:43;;;;;;;7.53;5.93;;;13.90;99.90;;;;;;2059060;28;20233;-65
2023/05/22 03:10:45;;;;;;;9.20;6.70;;;13.90;99.90;;;;;;2060045;28;20594;-65
2023/05/22 03:11:45;;;;;;;8.02;6.15;;;13.90;99.90;;;;;;2062256;28;20688;-65
2023/05/22 03:12:47;;;;;;;6.87;6.17;;;14.00;99.90;;;;;;2056748;28;20222;-66
2023/05/22 03:13:47;;;;;;;8.32;5.55;;;14.00;99.90;;;;;;2057438;28;20258;-66
2023/05/22 03:14:48;;;;;;;7.73;5.90;;;14.00;99.90;;;;;;2059130;28;20223;-66
2023/05/22 03:15:49;;;;;;;7.60;6.07;;;14.00;99.90;;;;;;2056607;28;20410;-66
2023/05/22 03:16:50;;;;;;;7.72;5.60;;;14.00;99.90;;;;;;2060903;28;20229;-66
2023/05/22 03:17:51;;;;;;;7.27;5.93;;;13.90;99.90;;;;;;2055687;28;20297;-66
2023/05/22 03:19:15;;;;;;;6.67;5.37;;;14.00;99.90;;;;;;2054680;28;20253;-66
2023/05/22 03:20:16;;;;;;;8.18;5.72;;;14.00;99.90;;;;;;2053961;28;20349;-66
2023/05/22 03:21:17;;;;;;;9.63;5.60;;;14.00;99.90;;;;;;2056945;28;20398;-66
2023/05/22 03:22:18;;;;;;;8.60;6.03;;;14.00;99.90;;;;;;2060896;28;20194;-66
2023/05/22 03:23:21;;;;;;;9.23;6.10;;;14.00;99.90;;;;;;2062153;28;20190;-66
2023/05/22 03:24:23;;;;;;;7.57;6.07;;;14.00;99.90;;;;;;2062081;28;20272;-66
2023/05/22 03:25:24;;;;;;;8.73;6.03;;;14.00;99.90;;;;;;2061553;28;20748;-66
2023/05/22 03:26:27;;;;;;;9.53;7.20;;;13.90;99.90;;;;;;2058575;28;20246;-66
2023/05/22 03:27:27;;;;;;;8.98;6.80;;;13.90;99.90;;;;;;2048260;28;20233;-66
2023/05/22 03:28:28;;;;;;;8.70;7.33;;;13.90;99.90;;;;;;2058839;28;20276;-66
2023/05/22 03:29:29;;;;;;;9.90;6.87;;;13.80;99.90;;;;;;2056166;28;20231;-66
2023/05/22 03:30:29;;;;;;;9.40;6.57;;;13.80;99.90;;;;;;2061503;28;20300;-66
2023/05/22 03:31:32;;;;;;;11.23;6.70;;;13.60;99.90;;;;;;2066463;28;20222;-66
2023/05/22 03:32:36;;;;;;;8.30;6.32;;;13.60;99.90;;;;;;2062274;28;20218;-66
2023/05/22 03:33:37;;;;;;;10.40;6.57;;;13.60;99.90;;;;;;2067030;28;20226;-66
2023/05/22 03:34:37;;;;;;;8.23;6.03;;;13.60;99.90;;;;;;2058604;28;20258;-66
2023/05/22 03:35:38;;;;;;;7.47;5.77;;;13.50;99.90;;;;;;2060102;28;20599;-66
2023/05/22 03:36:40;;;;;;;8.67;5.67;;;13.60;99.90;;;;;;2069158;28;20757;-66
2023/05/22 03:37:40;;;;;;;7.93;5.78;;;13.60;99.90;;;;;;2068012;28;20253;-66
2023/05/22 03:38:41;;;;;;;9.60;6.03;;;13.60;99.90;;;;;;2060094;28;20686;-66
2023/05/22 03:39:42;;;;;;;9.03;6.07;;;13.60;99.90;;;;;;2060790;28;20738;-66
2023/05/22 03:40:42;;;;;;;8.67;5.37;;;13.60;99.90;;;;;;2059974;28;20217;-66
2023/05/22 03:41:43;;;;;;;6.27;4.73;;;13.70;99.90;;;;;;2068725;28;20605;-66
2023/05/22 03:42:44;;;;;;;7.50;5.67;;;13.70;99.90;;;;;;2065259;28;20222;-66
2023/05/22 03:43:45;;;;;;;7.53;6.27;;;13.70;99.90;;;;;;2059713;28;20223;-66
2023/05/22 03:44:46;;;;;;;8.77;5.70;;;13.80;99.90;;;;;;2060241;28;20227;-66
2023/05/22 03:45:46;;;;;;;9.97;6.40;;;13.80;99.90;;;;;;2063561;28;20773;-66
2023/05/22 03:46:50;;;;;;;8.17;6.20;;;13.80;99.90;;;;;;2063051;28;20667;-66
2023/05/22 03:47:51;;;;;;;10.27;6.00;;;13.80;99.90;;;;;;2060359;28;20310;-66
2023/05/22 03:48:52;;;;;;;7.77;5.40;;;13.80;99.90;;;;;;2059858;28;20724;-66
2023/05/22 03:49:53;;;;;;;8.53;6.10;;;13.70;99.90;;;;;;2054915;28;20304;-66
2023/05/22 03:50:53;;;;;;;8.88;6.28;;;13.80;99.90;;;;;;2056220;28;20270;-66
2023/05/22 03:51:54;;;;;;;9.43;5.37;;;13.80;99.90;;;;;;2058801;28;20218;-66
2023/05/22 03:52:55;;;;;;;6.20;5.33;;;13.70;99.90;;;;;;2060346;28;20615;-66
2023/05/22 03:53:56;;;;;;;6.93;5.40;;;13.50;99.90;;;;;;2067177;28;20616;-66
2023/05/22 03:54:57;;;;;;;8.17;6.23;;;13.70;99.90;;;;;;2064651;28;20214;-66
2023/05/22 03:55:58;;;;;;;7.07;5.37;;;13.70;99.90;;;;;;2060817;28;20226;-66
2023/05/22 03:56:59;;;;;;;10.57;6.18;;;13.60;99.90;;;;;;2060376;28;20310;-66
2023/05/22 03:58:00;;;;;;;10.25;6.53;;;13.60;99.90;;;;;;2061241;28;20234;-66
2023/05/22 03:59:01;;;;;;;9.47;6.27;;;13.60;99.90;;;;;;2059434;28;20207;-67
2023/05/22 04:00:08;;;;;;;8.30;6.10;;;13.60;99.90;;;;;;2064038;28;20233;-66
2023/05/22 04:01:10;;;;;;;8.70;5.90;;;13.60;99.90;;;;;;2061134;28;20183;-66
2023/05/22 04:02:11;;;;;;;8.75;6.07;;;13.60;99.90;;;;;;2052835;28;20179;-66
2023/05/22 04:03:12;;;;;;;9.45;6.20;;;13.60;99.90;;;;;;2063928;28;20782;-66
2023/05/22 04:04:15;;;;;;;8.60;6.00;;;13.50;99.90;;;;;;2051605;28;20278;-66
2023/05/22 04:05:16;;;;;;;9.00;5.75;;;13.50;99.90;;;;;;2061008;28;20186;-66
2023/05/22 04:06:20;;;;;;;8.70;6.10;;;13.50;99.90;;;;;;2058222;28;20187;-67
2023/05/22 04:07:21;;;;;;;11.40;6.47;;;13.50;99.90;;;;;;2063593;28;20238;-66
2023/05/22 04:08:22;;;;;;;9.90;6.03;;;13.40;99.90;;;;;;2056079;28;20285;-66
2023/05/22 04:09:26;;;;;;;8.70;6.13;;;13.30;99.90;;;;;;2064002;28;20265;-66
2023/05/22 04:10:27;;;;;;;7.80;6.03;;;13.40;99.90;;;;;;2061488;28;20252;-66
2023/05/22 04:11:29;;;;;;;9.70;6.23;;;13.30;99.90;;;;;;2052760;28;20231;-66
2023/05/22 04:12:29;;;;;;;9.38;6.38;;;13.40;99.90;;;;;;2055468;28;20234;-66
2023/05/22 04:13:31;;;;;;;11.13;6.17;;;13.40;99.90;;;;;;2047574;28;20329;-66
2023/05/22 04:14:33;;;;;;;12.65;6.30;;;13.40;99.90;;;;;;2053223;28;20232;-66
2023/05/22 04:15:34;;;;;;;7.13;5.82;;;13.40;99.90;;;;;;2052043;28;20226;-66
2023/05/22 04:16:34;;;;;;;8.68;6.57;;;13.40;99.90;;;;;;2052451;28;20212;-67
2023/05/22 04:17:40;;;;;;;8.33;6.23;;;13.30;99.90;;;;;;2068053;28;20224;-67
2023/05/22 04:18:41;;;;;;;9.30;6.15;;;13.40;99.90;;;;;;2067032;28;20218;-66
2023/05/22 04:19:41;;;;;;;7.67;5.97;;;13.40;99.90;;;;;;2058787;28;20598;-66
2023/05/22 04:20:42;;;;;;;8.43;5.90;;;13.40;99.90;;;;;;2058835;28;20651;-66
2023/05/22 04:21:44;;;;;;;7.00;5.43;;;13.30;99.90;;;;;;2068607;28;20218;-66
2023/05/22 04:22:47;;;;;;;8.98;5.93;;;13.30;99.90;;;;;;2069294;28;20305;-67
2023/05/22 04:23:48;;;;;;;8.35;5.47;;;13.30;99.90;;;;;;2063303;28;20273;-68
2023/05/22 04:24:49;;;;;;;8.40;6.28;;;13.40;99.90;;;;;;2061818;28;20230;-67
2023/05/22 04:25:50;;;;;;;8.80;5.53;;;13.40;99.90;;;;;;2066885;28;20255;-67
2023/05/22 04:26:51;;;;;;;7.85;6.22;;;13.40;99.90;;;;;;2061111;28;20563;-67
2023/05/22 04:27:52;;;;;;;9.75;6.85;;;13.50;99.90;;;;;;2060558;28;20226;-66
2023/05/22 04:28:53;;;;;;;7.57;5.67;;;13.50;99.90;;;;;;2061303;28;20661;-66
2023/05/22 04:29:54;;;;;;;7.90;5.57;;;13.60;99.90;;;;;;2063650;28;20237;-66
2023/05/22 04:30:56;;;;;;;10.73;5.70;;;13.60;99.90;;;;;;2049454;28;20235;-67
2023/05/22 04:31:59;;;;;;;8.40;6.00;;;13.70;99.90;;;;;;2051818;28;20226;-66
2023/05/22 04:33:00;;;;;;;8.15;5.45;;;13.60;99.90;;;;;;2061405;28;20253;-67
2023/05/22 04:34:01;;;;;;;11.77;7.57;;;13.70;99.90;;;;;;2055848;28;20230;-68
2023/05/22 04:35:02;;;;;;;7.75;5.75;;;13.70;99.90;;;;;;2061587;28;20681;-67
2023/05/22 04:36:03;;;;;;;7.70;5.53;;;13.60;99.90;;;;;;2056108;28;20187;-67
2023/05/22 04:37:05;;;;;;;7.15;5.80;;;13.60;99.90;;;;;;2055914;28;20211;-67
2023/05/22 04:38:05;;;;;;;7.30;5.20;;;13.60;99.90;;;;;;2060255;28;20210;-67
2023/05/22 04:39:06;;;;;;;6.53;4.93;;;13.60;99.90;;;;;;2063821;28;20209;-67
2023/05/22 04:40:08;;;;;;;6.70;5.25;;;13.10;99.90;;;;;;2059848;28;20186;-67
2023/05/22 04:41:12;;;;;;;8.07;5.43;;;13.60;99.90;;;;;;2047417;28;20682;-67
2023/05/22 04:42:13;;;;;;;8.57;5.80;;;13.70;99.90;;;;;;2057761;28;20183;-67
2023/05/22 04:43:17;;;;;;;7.15;5.05;;;13.50;99.90;;;;;;2059947;28;20256;-66
2023/05/22 04:44:21;;;;;;;7.38;5.60;;;14.00;99.90;;;;;;2060565;28;20252;-65
2023/05/22 04:45:24;;;;;;;9.20;5.53;;;13.90;99.90;;;;;;2060219;28;20230;-66
2023/05/22 04:46:24;;;;;;;6.25;4.72;;;13.90;99.90;;;;;;2060134;28;20240;-66
2023/05/22 04:47:30;;;;;;;11.50;6.20;;;13.90;99.90;;;;;;2064164;28;20237;-66
2023/05/22 04:48:31;;;;;;;7.03;5.35;;;14.00;99.90;;;;;;2058492;28;20234;-66
2023/05/22 04:49:32;;;;;;;6.97;5.53;;;14.20;99.90;;;;;;2063902;28;20786;-65
2023/05/22 04:50:33;;;;;;;9.18;5.55;;;14.00;99.90;;;;;;2063913;28;20222;-66
2023/05/22 04:51:33;;;;;;;7.80;5.33;;;14.00;99.90;;;;;;2062477;28;20262;-66
2023/05/22 04:52:34;;;;;;;6.77;5.00;;;14.20;99.90;;;;;;2060287;28;20230;-66
2023/05/22 04:53:37;;;;;;;7.27;5.17;;;14.00;99.90;;;;;;2062208;28;20708;-66
2023/05/22 04:54:38;;;;;;;7.22;5.55;;;;;;;;;;2053526;28;20464;-65
2023/05/22 04:55:39;;;;;;;8.65;5.45;;;14.10;99.90;;;;;;2051302;28;20249;-66
2023/05/22 04:56:40;;;;;;;8.47;5.77;;;;;;;;;;2053552;28;20235;-66
2023/05/22 04:57:43;;;;;;;8.10;5.72;;;14.10;99.90;;;;;;2055437;28;20215;-66
2023/05/22 04:58:44;;;;;;;7.65;5.50;;;14.00;99.90;;;;;;2053941;28;20313;-66
2023/05/22 04:59:45;;;;;;;7.67;6.00;;;;;;;;;;2054553;28;20215;-66
2023/05/22 05:00:46;;;;;;;10.15;6.25;;;14.10;99.90;;;;;;2057713;28;20222;-66
2023/05/22 05:01:47;;;;;;;9.07;6.47;;;;;;;;;;2054880;28;20227;-66
2023/05/22 05:02:48;;;;;;;9.80;5.75;;;;;;;;;;2063629;28;20267;-66
2023/05/22 05:03:49;;;;;;;8.02;5.65;;;;;;;;;;2063446;28;20222;-66
2023/05/22 05:04:51;;;;;;;8.35;5.68;;;14.00;99.90;;;;;;2066949;28;20302;-67
2023/05/22 05:05:53;;;;;;;8.82;5.63;;;;;;;;;;2056432;28;20247;-66
2023/05/22 05:06:53;;;;;;;10.27;6.63;;;14.00;99.90;;;;;;2069892;28;20236;-66
2023/05/22 05:07:55;;;;;;;8.07;5.78;;;14.30;99.90;;;;;;2059832;28;20223;-66
2023/05/22 05:08:56;;;;;;;9.97;6.40;;;14.20;99.90;;;;;;2060566;28;20221;-67
2023/05/22 05:09:56;;;;;;;8.53;6.33;;;13.90;99.90;;;;;;2057192;28;20484;-67
2023/05/22 05:10:57;;;;;;;7.77;5.93;;;;;;;;;;2068744;28;20249;-67
2023/05/22 05:11:58;;;;;;;7.93;5.93;;;14.40;99.90;;;;;;2058696;28;20705;-67
2023/05/22 05:12:59;;;;;;;8.53;5.70;;;14.30;99.90;;;;;;2059767;28;20239;-67
2023/05/22 05:14:00;;;;;;;9.10;5.97;;;14.00;99.90;;;;;;2056826;28;20219;-67
2023/05/22 05:15:01;;;;;;;9.77;5.45;;;14.30;99.90;;;;;;2051512;28;20619;-67
2023/05/22 05:16:02;;;;;;;8.87;5.57;;;14.40;99.90;;;;;;2061734;28;20198;-68
2023/05/22 05:17:03;;;;;;;7.40;5.65;;;;;;;;;;2062540;28;20711;-68
2023/05/22 05:18:04;;;;;;;8.07;5.88;;;14.10;99.90;;;;;;2063640;28;20194;-67
2023/05/22 05:19:05;;;;;;;8.83;6.80;;;14.10;99.90;;;;;;2063537;28;20186;-67
2023/05/22 05:20:07;;;;;;;8.60;5.93;;;14.20;99.90;;;;;;2063699;28;20656;-67
2023/05/22 05:21:08;;;;;;;8.13;6.15;;;13.90;99.90;;;;;;2052483;28;20222;-67
2023/05/22 05:22:09;;;;;;;8.17;6.37;;;;;;;;;;2046998;28;20216;-66
2023/05/22 05:23:10;;;;;;;8.90;6.43;;;;;;;;;;2046656;28;20765;-67
2023/05/22 05:24:12;;;;;;;7.93;6.25;;;14.00;99.90;;;;;;2055339;28;20206;-66
2023/05/22 05:25:13;;;;;;;8.60;6.25;;;;;;;;;;2055167;28;20585;-67
2023/05/22 05:26:14;;;;;;;9.35;6.50;;;;;;;;;;2049072;28;20204;-66
2023/05/22 05:27:15;;;;;;;10.68;6.10;;;14.30;99.90;;;;;;2058900;28;20183;-67
2023/05/22 05:28:16;;;;;;;9.27;6.00;;;;;;;;;;2054321;28;20258;-68
2023/05/22 05:29:17;;;;;;;6.35;5.68;;;;;;;;;;2056702;28;20203;-66